Stratton, Maine
Current Conditions -  °F | °C
As of 2:02 AM on Thursday 23 Oct 2014 (Local Time) from KBML Reporting Station
Haze Haze  
Wind Chill: 42°   Ceiling: 1000
Heat Index: 45°   Visibility: 5mi
Dew Point: 43°   Wind: 6mph
Humidity: 93%   Direction: 340°NNW
Pressure: 30.02"   Gusts: NA
Location:  45.14°N, 70.44°W
Report Text: KBML 230602Z AUTO 34005KT 5SM BR BKN010 OVC015 07/06 A3002 RMK AO2 CIG 007V012 T00720061
Loading
Personal Weather Stations






























Interactive Weather Map
Tropical Storm Tracking
New forecast layout! Learn more

10-Day Weather Forecast

Advertisements
Track Severe Weather on mobile